createdAt,value
2023-08-20T04:46:28.647Z,98631.03
2023-08-20T05:14:11.671Z,98645.94
2023-08-20T05:16:38.190Z,98648.75
2023-08-20T05:19:05.075Z,98646.47
2023-08-20T05:21:31.555Z,98645.84
2023-08-20T05:23:58.082Z,98653.34
2023-08-20T05:26:24.677Z,98650.81
2023-08-20T05:28:51.140Z,98650.31
2023-08-20T05:31:17.630Z,98651.28
2023-08-20T05:33:44.168Z,98660.06
2023-08-20T05:36:10.713Z,98656.41
2023-08-20T05:38:37.239Z,98656.94
2023-08-20T05:41:03.740Z,98665.13
2023-08-20T05:43:30.198Z,98663.78
2023-08-20T05:45:56.782Z,98662.56
2023-08-20T05:48:23.413Z,98655.53
2023-08-20T05:50:49.902Z,98654.91
2023-08-20T05:53:16.507Z,98656.53
2023-08-20T05:55:42.976Z,98654.25
2023-08-20T05:58:09.427Z,98647.47
2023-08-20T06:00:35.897Z,98650.72
2023-08-20T06:03:02.485Z,98648.66
2023-08-20T06:05:29.204Z,98656.59
2023-08-20T06:07:55.773Z,98653.13
2023-08-20T06:10:22.238Z,98648.28
2023-08-20T06:12:48.767Z,98648.31
2023-08-20T06:15:15.789Z,98643.38
2023-08-20T06:17:42.353Z,98653.03
2023-08-20T06:20:09.835Z,98650.19
2023-08-20T06:22:36.471Z,98652.88
2023-08-20T06:25:03.573Z,98641.91
2023-08-20T06:27:30.067Z,98653.72
2023-08-20T06:29:56.674Z,98653.72
2023-08-20T06:32:24.935Z,98655.84
2023-08-20T06:34:51.416Z,98657.50
2023-08-20T06:37:18.021Z,98656.34
2023-08-20T06:39:44.829Z,98664.34
2023-08-20T06:42:11.674Z,98669.81
2023-08-20T06:44:38.361Z,98676.19
2023-08-20T06:47:05.052Z,98673.75
2023-08-20T06:49:31.958Z,98674.31
2023-08-20T06:51:58.466Z,98680.19
2023-08-20T06:54:25.056Z,98675.03
2023-08-20T06:56:51.555Z,98678.81
2023-08-20T06:59:18.527Z,98676.84
2023-08-20T07:01:45.122Z,98675.81
2023-08-20T07:04:11.738Z,98687.94
2023-08-20T07:06:38.255Z,98685.13
2023-08-20T07:09:05.021Z,98685.56
2023-08-20T07:11:31.715Z,98686.56
2023-08-20T07:13:58.182Z,98683.25
2023-08-20T07:16:24.756Z,98687.88
2023-08-20T07:18:51.210Z,98685.09
2023-08-20T07:21:17.675Z,98698.75
2023-08-20T07:23:44.243Z,98703.97
2023-08-20T07:26:13.316Z,98707.31
2023-08-20T07:28:58.126Z,98702.56
2023-08-20T07:31:29.432Z,98698.25
2023-08-20T07:33:57.236Z,98702.38
2023-08-20T07:36:25.712Z,98707.19
2023-08-20T07:38:53.433Z,98708.53
2023-08-20T07:41:21.023Z,98707.16
2023-08-20T07:43:48.791Z,98710.13
2023-08-20T07:46:16.141Z,98711.66
2023-08-20T07:48:43.218Z,98708.06
2023-08-20T07:51:10.117Z,98702.63
2023-08-20T07:53:36.592Z,98690.38
2023-08-20T07:56:03.249Z,98704.22
2023-08-20T07:58:31.006Z,98698.97
2023-08-20T08:00:58.720Z,98692.78
2023-08-20T08:03:28.590Z,98697.09
2023-08-20T08:05:55.881Z,98693.16
2023-08-20T08:08:23.258Z,98704.22
2023-08-20T08:10:50.105Z,98699.72
2023-08-20T08:13:19.994Z,98704.34
2023-08-20T08:15:47.021Z,98699.69
2023-08-20T08:18:13.614Z,98710.03
2023-08-20T08:20:40.269Z,98711.19
2023-08-20T08:23:06.772Z,98722.84
2023-08-20T08:25:33.615Z,98727.91
2023-08-20T08:28:01.184Z,98731.47
2023-08-20T08:30:28.988Z,98734.16
2023-08-20T08:32:55.506Z,98732.78
2023-08-20T08:35:22.093Z,98736.25
2023-08-20T08:37:48.764Z,98736.72
2023-08-20T08:40:15.528Z,98737.47
2023-08-20T08:42:43.893Z,98733.84
2023-08-20T08:45:11.931Z,98729.34
2023-08-20T08:47:40.649Z,98732.44
2023-08-20T08:50:08.667Z,98735.44
2023-08-20T08:52:37.571Z,98731.91
2023-08-20T08:55:06.098Z,98729.13
2023-08-20T08:57:32.844Z,98728.50
2023-08-20T09:00:02.819Z,98724.00
2023-08-20T09:02:29.294Z,98727.53
2023-08-20T09:04:56.478Z,98726.25
2023-08-20T09:07:22.926Z,98725.88
2023-08-20T09:09:50.536Z,98724.69
2023-08-20T09:12:18.917Z,98733.72
2023-08-20T09:14:50.532Z,98730.53
2023-08-20T09:17:17.656Z,98728.09
2023-08-20T09:19:45.723Z,98726.56
2023-08-20T09:22:13.753Z,98734.22
2023-08-20T09:24:47.144Z,98733.38
2023-08-20T09:27:14.424Z,98736.13
2023-08-20T09:29:51.980Z,98743.13
2023-08-20T09:32:20.746Z,98725.13
2023-08-20T09:34:49.264Z,98724.09
2023-08-20T09:37:17.530Z,98726.72
2023-08-20T09:39:44.763Z,98723.59
2023-08-20T09:42:12.362Z,98720.50
2023-08-20T09:44:49.321Z,98722.41
2023-08-20T09:47:17.784Z,98720.41
2023-08-20T09:49:49.119Z,98728.72
2023-08-20T09:52:40.655Z,98726.22
2023-08-20T09:55:14.443Z,98723.53
2023-08-20T09:57:44.309Z,98718.63
2023-08-20T10:00:14.079Z,98717.19
2023-08-20T10:02:41.866Z,98720.56
2023-08-20T10:05:10.014Z,98722.47
2023-08-20T10:07:37.801Z,98718.13
2023-08-20T10:10:11.357Z,98725.50
2023-08-20T10:12:40.253Z,98715.00
2023-08-20T10:15:09.765Z,98713.88
2023-08-20T10:17:38.270Z,98712.09
2023-08-20T10:20:06.131Z,98717.03
2023-08-20T10:22:46.228Z,98716.28
2023-08-20T10:25:23.530Z,98722.31
2023-08-20T10:27:50.139Z,98712.38
2023-08-20T10:30:26.220Z,98712.75
2023-08-20T10:32:55.047Z,98715.19
2023-08-20T10:35:27.305Z,98713.19
2023-08-20T10:38:15.630Z,98716.47
2023-08-20T10:40:57.605Z,98716.31
2023-08-20T10:43:26.878Z,98713.75
2023-08-20T10:46:19.779Z,98717.75
2023-08-20T10:48:57.045Z,98715.75
2023-08-20T10:51:27.471Z,98711.25
2023-08-20T10:54:03.477Z,98715.78
2023-08-20T10:56:46.008Z,98707.28
2023-08-20T10:59:17.912Z,98706.44
2023-08-20T11:01:49.083Z,98705.41
2023-08-20T11:04:21.308Z,98704.81
2023-08-20T11:06:50.505Z,98706.66
2023-08-20T11:09:17.319Z,98704.16
2023-08-20T11:11:43.885Z,98698.66
2023-08-20T11:14:21.320Z,98698.00
2023-08-20T11:17:05.307Z,98701.34
2023-08-20T11:19:36.449Z,98700.50
2023-08-20T11:22:18.406Z,98701.81
2023-08-20T11:27:46.035Z,98690.22
2023-08-20T11:30:33.305Z,98690.34
2023-08-20T11:33:32.276Z,98684.91
2023-08-20T11:36:16.208Z,98688.22
2023-08-20T11:42:08.409Z,98694.41
2023-08-20T11:44:49.817Z,98691.88
2023-08-20T11:47:31.585Z,98686.63
2023-08-20T11:50:18.296Z,98692.50
2023-08-20T11:53:14.424Z,98692.19
2023-08-20T11:56:01.480Z,98686.22
2023-08-20T11:58:38.267Z,98687.53
2023-08-20T12:01:24.704Z,98689.44
2023-08-20T12:04:17.523Z,98683.63
2023-08-20T12:08:20.057Z,98683.50
2023-08-20T12:10:35.305Z,98680.75
2023-08-20T12:16:22.918Z,98673.28
2023-08-20T12:19:14.028Z,98674.84
2023-08-20T12:21:50.499Z,98668.25
2023-08-20T12:24:53.812Z,98673.84
2023-08-20T12:27:29.489Z,98665.34
2023-08-20T12:30:08.890Z,98667.88
2023-08-20T12:32:46.722Z,98669.50
2023-08-20T12:35:18.723Z,98666.00
2023-08-20T12:38:05.051Z,98663.78
2023-08-20T12:40:40.225Z,98661.31
2023-08-20T12:43:28.019Z,98666.19
2023-08-20T12:46:05.217Z,98654.75
2023-08-20T12:48:49.194Z,98653.16
2023-08-20T12:51:28.011Z,98653.78
2023-08-20T12:54:02.874Z,98651.09
2023-08-20T12:59:10.219Z,98638.63
2023-08-20T13:01:48.912Z,98631.16
2023-08-20T13:04:47.111Z,98643.09
2023-08-20T13:07:26.465Z,98639.09
2023-08-20T13:10:13.031Z,98638.94
2023-08-20T13:12:48.375Z,98635.25
2023-08-20T13:15:30.462Z,98634.22
2023-08-20T13:18:03.864Z,98626.84
2023-08-20T13:20:44.431Z,98617.81
2023-08-20T13:23:14.724Z,98624.72
2023-08-20T13:25:55.749Z,98620.66
2023-08-20T13:28:34.610Z,98621.03
2023-08-20T13:31:10.036Z,98612.72
2023-08-20T13:33:55.046Z,98611.72
2023-08-20T13:36:27.871Z,98610.97
2023-08-20T13:39:04.149Z,98614.19
2023-08-20T13:41:49.314Z,98611.25
2023-08-20T13:48:33.922Z,98608.03
2023-08-20T13:57:39.244Z,98607.56
2023-08-20T14:00:42.666Z,98608.97
2023-08-20T14:03:40.519Z,98610.44
2023-08-20T14:09:40.559Z,98599.06
2023-08-20T14:18:20.862Z,98596.25
2023-08-20T14:20:53.293Z,98601.22
2023-08-20T14:27:24.657Z,98595.03
2023-08-20T14:31:12.257Z,98595.91
2023-08-20T14:33:58.375Z,98594.47
2023-08-20T14:36:38.600Z,98590.47
2023-08-20T14:42:32.566Z,98581.44
2023-08-20T14:52:13.946Z,98574.06
2023-08-20T14:54:50.936Z,98566.63
2023-08-20T14:57:41.347Z,98573.91
2023-08-20T15:03:59.245Z,98566.28
2023-08-20T15:06:42.443Z,98567.00
2023-08-20T15:09:44.580Z,98566.38
2023-08-20T15:29:03.480Z,98563.00
2023-08-20T15:31:42.106Z,98563.44
2023-08-20T15:34:33.937Z,98566.31
2023-08-20T15:37:09.420Z,98558.56
2023-08-20T15:39:48.798Z,98552.47
2023-08-20T15:42:20.223Z,98558.19
2023-08-20T15:45:03.868Z,98554.34
2023-08-20T15:47:36.105Z,98558.09
2023-08-20T15:50:29.029Z,98553.41
2023-08-20T15:53:13.037Z,98555.59
2023-08-20T15:55:42.312Z,98551.72
2023-08-20T15:58:13.040Z,98552.84
2023-08-20T16:00:42.448Z,98550.31
2023-08-20T16:03:26.060Z,98545.66
2023-08-20T16:06:07.880Z,98548.50
2023-08-20T16:09:04.560Z,98557.69
2023-08-20T16:11:44.880Z,98548.69
2023-08-20T16:20:20.266Z,98555.97
2023-08-20T16:25:45.431Z,98552.91
2023-08-20T16:28:52.987Z,98550.56
2023-08-20T16:31:25.804Z,98555.41
2023-08-20T16:34:13.130Z,98550.31
2023-08-20T16:36:56.816Z,98548.66
2023-08-20T16:40:17.187Z,98549.50
2023-08-20T16:42:59.722Z,98553.44
2023-08-20T16:50:22.544Z,98546.19
2023-08-20T16:52:49.323Z,98551.13
2023-08-20T16:55:29.561Z,98550.41
2023-08-20T16:58:05.775Z,98554.31
2023-08-20T17:01:05.517Z,98558.00
2023-08-20T17:06:34.739Z,98558.00
2023-08-20T17:12:25.134Z,98567.09
2023-08-20T17:16:14.157Z,98560.22
2023-08-20T17:36:11.462Z,98573.19
2023-08-20T17:42:16.874Z,98568.38
2023-08-20T17:47:46.708Z,98567.38
2023-08-20T17:50:16.858Z,98569.22
2023-08-20T17:53:20.935Z,98571.72
2023-08-20T18:02:13.605Z,98578.47
2023-08-20T18:14:32.780Z,98590.69
2023-08-20T18:17:27.704Z,98598.00
2023-08-20T18:23:05.348Z,98600.69
2023-08-20T18:25:44.810Z,98608.88
2023-08-20T18:28:11.681Z,98607.13
2023-08-20T18:30:43.866Z,98604.41
2023-08-20T18:36:32.917Z,98617.00
2023-08-20T18:38:59.805Z,98618.00
2023-08-20T18:41:26.324Z,98618.22
2023-08-20T18:43:59.237Z,98623.72
2023-08-20T18:46:25.805Z,98620.31
2023-08-20T18:49:02.828Z,98620.16
2023-08-20T18:51:32.946Z,98626.50
2023-08-20T18:54:24.147Z,98632.09
2023-08-20T18:56:55.217Z,98631.88
2023-08-20T18:59:41.032Z,98636.56
2023-08-20T19:02:12.217Z,98639.72
2023-08-20T19:04:49.639Z,98641.41
2023-08-20T19:07:23.750Z,98646.56
2023-08-20T19:09:57.899Z,98646.00
2023-08-20T19:12:29.128Z,98651.31
2023-08-20T19:15:12.450Z,98649.69
2023-08-20T19:17:45.267Z,98653.56
2023-08-20T19:26:01.393Z,98650.53
2023-08-20T19:28:49.386Z,98645.22
2023-08-20T19:35:03.655Z,98642.25
2023-08-20T19:37:35.417Z,98646.19
2023-08-20T19:40:32.424Z,98649.25
2023-08-20T19:43:15.276Z,98648.50
2023-08-20T19:45:44.866Z,98646.81
2023-08-20T21:36:38.749Z,98717.91
2023-08-20T21:53:11.431Z,98712.19
2023-08-20T21:56:33.373Z,98722.16
2023-08-20T22:10:21.875Z,98729.44
2023-08-20T22:19:27.673Z,98727.16
2023-08-20T22:32:44.889Z,98742.66
2023-08-20T22:35:36.173Z,98735.97
2023-08-20T22:45:13.658Z,98739.56
2023-08-20T22:59:56.326Z,98728.53
2023-08-20T23:17:28.654Z,98735.66
2023-08-20T23:20:51.358Z,98727.16
2023-08-20T23:25:12.803Z,98723.56
2023-08-20T23:37:27.398Z,98727.00
